sensor_id;sensor_type;location;lat;lon;timestamp;P1;durP1;ratioP1;P2;durP2;ratioP2
4486;SDS011;2256;48.740;9.106;2022-11-15T00:00:45;5.40;;;3.33;;
4486;SDS011;2256;48.740;9.106;2022-11-15T00:03:12;14.20;;;4.67;;
4486;SDS011;2256;48.740;9.106;2022-11-15T00:05:40;6.80;;;4.10;;
4486;SDS011;2256;48.740;9.106;2022-11-15T00:08:07;4.70;;;3.60;;
4486;SDS011;2256;48.740;9.106;2022-11-15T00:10:34;6.70;;;3.70;;
4486;SDS011;2256;48.740;9.106;2022-11-15T00:13:03;7.80;;;3.70;;
4486;SDS011;2256;48.740;9.106;2022-11-15T00:15:31;14.43;;;4.07;;
4486;SDS011;2256;48.740;9.106;2022-11-15T00:17:59;4.63;;;3.20;;
4486;SDS011;2256;48.740;9.106;2022-11-15T00:20:25;7.60;;;3.40;;
4486;SDS011;2256;48.740;9.106;2022-11-15T00:22:52;5.53;;;3.23;;
4486;SDS011;2256;48.740;9.106;2022-11-15T00:25:19;6.33;;;2.90;;
4486;SDS011;2256;48.740;9.106;2022-11-15T00:27:46;4.80;;;3.00;;
4486;SDS011;2256;48.740;9.106;2022-11-15T00:30:13;15.67;;;3.40;;
4486;SDS011;2256;48.740;9.106;2022-11-15T00:32:39;7.27;;;3.00;;
4486;SDS011;2256;48.740;9.106;2022-11-15T00:35:08;6.40;;;3.03;;
4486;SDS011;2256;48.740;9.106;2022-11-15T00:37:34;3.37;;;2.47;;
4486;SDS011;2256;48.740;9.106;2022-11-15T00:40:01;6.87;;;3.40;;
4486;SDS011;2256;48.740;9.106;2022-11-15T00:42:28;7.33;;;3.70;;
4486;SDS011;2256;48.740;9.106;2022-11-15T00:44:55;3.00;;;2.30;;
4486;SDS011;2256;48.740;9.106;2022-11-15T00:47:22;5.13;;;2.73;;
4486;SDS011;2256;48.740;9.106;2022-11-15T00:49:49;5.47;;;2.70;;
4486;SDS011;2256;48.740;9.106;2022-11-15T00:52:17;4.67;;;2.93;;
4486;SDS011;2256;48.740;9.106;2022-11-15T00:54:44;4.30;;;2.80;;
4486;SDS011;2256;48.740;9.106;2022-11-15T00:57:11;6.20;;;2.97;;
4486;SDS011;2256;48.740;9.106;2022-11-15T00:59:37;5.80;;;2.90;;
4486;SDS011;2256;48.740;9.106;2022-11-15T01:02:04;8.80;;;2.80;;
4486;SDS011;2256;48.740;9.106;2022-11-15T01:04:31;6.83;;;3.10;;
4486;SDS011;2256;48.740;9.106;2022-11-15T01:06:58;5.57;;;3.17;;
4486;SDS011;2256;48.740;9.106;2022-11-15T01:09:26;6.30;;;2.90;;
4486;SDS011;2256;48.740;9.106;2022-11-15T01:11:53;3.53;;;2.67;;
4486;SDS011;2256;48.740;9.106;2022-11-15T01:14:19;10.40;;;2.83;;
4486;SDS011;2256;48.740;9.106;2022-11-15T01:16:46;4.57;;;2.87;;
4486;SDS011;2256;48.740;9.106;2022-11-15T01:19:13;5.27;;;3.30;;
4486;SDS011;2256;48.740;9.106;2022-11-15T01:21:40;5.10;;;3.10;;
4486;SDS011;2256;48.740;9.106;2022-11-15T01:24:07;4.30;;;2.97;;
4486;SDS011;2256;48.740;9.106;2022-11-15T01:26:39;6.40;;;3.50;;
4486;SDS011;2256;48.740;9.106;2022-11-15T01:29:05;6.40;;;3.23;;
4486;SDS011;2256;48.740;9.106;2022-11-15T01:31:32;7.47;;;2.67;;
4486;SDS011;2256;48.740;9.106;2022-11-15T01:33:59;6.87;;;3.70;;
4486;SDS011;2256;48.740;9.106;2022-11-15T01:36:26;7.83;;;3.37;;
4486;SDS011;2256;48.740;9.106;2022-11-15T01:38:53;7.70;;;4.37;;
4486;SDS011;2256;48.740;9.106;2022-11-15T01:41:21;7.00;;;4.10;;
4486;SDS011;2256;48.740;9.106;2022-11-15T01:43:53;6.57;;;3.53;;
4486;SDS011;2256;48.740;9.106;2022-11-15T01:46:23;10.33;;;3.70;;
4486;SDS011;2256;48.740;9.106;2022-11-15T01:48:56;9.57;;;3.70;;
4486;SDS011;2256;48.740;9.106;2022-11-15T01:51:26;11.80;;;4.70;;
4486;SDS011;2256;48.740;9.106;2022-11-15T01:53:58;9.10;;;3.87;;
4486;SDS011;2256;48.740;9.106;2022-11-15T01:56:28;10.07;;;3.57;;
4486;SDS011;2256;48.740;9.106;2022-11-15T01:59:00;5.07;;;3.53;;
4486;SDS011;2256;48.740;9.106;2022-11-15T02:01:30;4.57;;;3.43;;
4486;SDS011;2256;48.740;9.106;2022-11-15T02:03:59;14.27;;;4.13;;
4486;SDS011;2256;48.740;9.106;2022-11-15T02:06:30;8.70;;;3.97;;
4486;SDS011;2256;48.740;9.106;2022-11-15T02:08:58;8.47;;;3.50;;
4486;SDS011;2256;48.740;9.106;2022-11-15T02:11:26;4.73;;;3.53;;
4486;SDS011;2256;48.740;9.106;2022-11-15T02:13:53;9.00;;;4.03;;
4486;SDS011;2256;48.740;9.106;2022-11-15T02:16:25;7.67;;;3.47;;
4486;SDS011;2256;48.740;9.106;2022-11-15T02:19:02;5.30;;;3.40;;
4486;SDS011;2256;48.740;9.106;2022-11-15T02:21:40;5.00;;;3.80;;
4486;SDS011;2256;48.740;9.106;2022-11-15T02:24:22;6.90;;;3.53;;
4486;SDS011;2256;48.740;9.106;2022-11-15T02:27:30;5.23;;;3.47;;
4486;SDS011;2256;48.740;9.106;2022-11-15T02:30:25;5.60;;;3.30;;
4486;SDS011;2256;48.740;9.106;2022-11-15T02:33:00;10.93;;;3.53;;
4486;SDS011;2256;48.740;9.106;2022-11-15T02:35:35;5.03;;;3.60;;
4486;SDS011;2256;48.740;9.106;2022-11-15T02:38:12;5.40;;;3.70;;
4486;SDS011;2256;48.740;9.106;2022-11-15T02:40:45;4.77;;;3.30;;
4486;SDS011;2256;48.740;9.106;2022-11-15T02:43:19;7.30;;;3.40;;
4486;SDS011;2256;48.740;9.106;2022-11-15T02:46:10;6.17;;;2.77;;
4486;SDS011;2256;48.740;9.106;2022-11-15T02:48:43;6.23;;;2.67;;
4486;SDS011;2256;48.740;9.106;2022-11-15T02:51:11;3.70;;;2.70;;
4486;SDS011;2256;48.740;9.106;2022-11-15T02:53:38;4.80;;;2.50;;
4486;SDS011;2256;48.740;9.106;2022-11-15T02:56:07;2.97;;;2.63;;
4486;SDS011;2256;48.740;9.106;2022-11-15T02:58:41;8.17;;;2.87;;
4486;SDS011;2256;48.740;9.106;2022-11-15T03:01:23;5.53;;;2.80;;
4486;SDS011;2256;48.740;9.106;2022-11-15T03:04:02;2.90;;;2.60;;
4486;SDS011;2256;48.740;9.106;2022-11-15T03:06:42;4.40;;;2.80;;
4486;SDS011;2256;48.740;9.106;2022-11-15T03:09:13;5.20;;;3.60;;
4486;SDS011;2256;48.740;9.106;2022-11-15T03:11:55;4.90;;;2.90;;
4486;SDS011;2256;48.740;9.106;2022-11-15T03:14:34;3.73;;;2.90;;
4486;SDS011;2256;48.740;9.106;2022-11-15T03:17:05;10.70;;;2.70;;
4486;SDS011;2256;48.740;9.106;2022-11-15T03:19:43;5.93;;;3.20;;
4486;SDS011;2256;48.740;9.106;2022-11-15T03:22:12;4.90;;;2.70;;
4486;SDS011;2256;48.740;9.106;2022-11-15T03:24:41;6.33;;;2.97;;
4486;SDS011;2256;48.740;9.106;2022-11-15T03:27:11;6.32;;;2.78;;
4486;SDS011;2256;48.740;9.106;2022-11-15T03:29:42;4.95;;;2.78;;
4486;SDS011;2256;48.740;9.106;2022-11-15T03:32:14;33.10;;;4.33;;
4486;SDS011;2256;48.740;9.106;2022-11-15T03:34:47;3.67;;;2.90;;
4486;SDS011;2256;48.740;9.106;2022-11-15T03:37:18;5.03;;;3.50;;
4486;SDS011;2256;48.740;9.106;2022-11-15T03:39:47;5.65;;;3.20;;
4486;SDS011;2256;48.740;9.106;2022-11-15T03:42:17;3.93;;;2.97;;
4486;SDS011;2256;48.740;9.106;2022-11-15T03:44:49;3.30;;;3.00;;
4486;SDS011;2256;48.740;9.106;2022-11-15T03:47:23;8.17;;;3.33;;
4486;SDS011;2256;48.740;9.106;2022-11-15T03:49:55;4.73;;;3.27;;
4486;SDS011;2256;48.740;9.106;2022-11-15T03:52:25;7.67;;;3.17;;
4486;SDS011;2256;48.740;9.106;2022-11-15T03:54:57;6.20;;;2.90;;
4486;SDS011;2256;48.740;9.106;2022-11-15T03:57:27;4.40;;;2.90;;
4486;SDS011;2256;48.740;9.106;2022-11-15T03:59:54;9.07;;;3.80;;
4486;SDS011;2256;48.740;9.106;2022-11-15T04:02:22;7.47;;;3.30;;
4486;SDS011;2256;48.740;9.106;2022-11-15T04:04:49;9.20;;;4.10;;
4486;SDS011;2256;48.740;9.106;2022-11-15T04:07:16;10.97;;;4.33;;
4486;SDS011;2256;48.740;9.106;2022-11-15T04:09:43;5.70;;;3.23;;
4486;SDS011;2256;48.740;9.106;2022-11-15T04:12:28;4.93;;;3.13;;
4486;SDS011;2256;48.740;9.106;2022-11-15T04:14:58;8.83;;;3.57;;
4486;SDS011;2256;48.740;9.106;2022-11-15T04:17:38;6.90;;;3.30;;
4486;SDS011;2256;48.740;9.106;2022-11-15T04:20:07;5.80;;;3.33;;
4486;SDS011;2256;48.740;9.106;2022-11-15T04:22:53;4.40;;;2.93;;
4486;SDS011;2256;48.740;9.106;2022-11-15T04:25:38;5.20;;;3.00;;
4486;SDS011;2256;48.740;9.106;2022-11-15T04:28:05;6.27;;;3.30;;
4486;SDS011;2256;48.740;9.106;2022-11-15T04:30:31;4.37;;;2.90;;
4486;SDS011;2256;48.740;9.106;2022-11-15T04:33:00;5.13;;;3.17;;
4486;SDS011;2256;48.740;9.106;2022-11-15T04:35:27;3.37;;;2.70;;
4486;SDS011;2256;48.740;9.106;2022-11-15T04:37:54;7.30;;;3.27;;
4486;SDS011;2256;48.740;9.106;2022-11-15T04:40:20;4.93;;;3.30;;
4486;SDS011;2256;48.740;9.106;2022-11-15T04:42:46;5.83;;;2.80;;
4486;SDS011;2256;48.740;9.106;2022-11-15T04:45:13;4.40;;;2.90;;
4486;SDS011;2256;48.740;9.106;2022-11-15T04:47:42;5.20;;;2.73;;
4486;SDS011;2256;48.740;9.106;2022-11-15T04:50:11;8.40;;;2.50;;
4486;SDS011;2256;48.740;9.106;2022-11-15T04:52:39;7.60;;;3.30;;
4486;SDS011;2256;48.740;9.106;2022-11-15T04:55:07;11.77;;;3.90;;
4486;SDS011;2256;48.740;9.106;2022-11-15T04:57:34;5.60;;;3.30;;
4486;SDS011;2256;48.740;9.106;2022-11-15T05:00:01;6.93;;;3.17;;
4486;SDS011;2256;48.740;9.106;2022-11-15T05:02:29;5.57;;;3.27;;
4486;SDS011;2256;48.740;9.106;2022-11-15T05:05:17;7.93;;;3.47;;
4486;SDS011;2256;48.740;9.106;2022-11-15T05:07:42;4.00;;;2.60;;
4486;SDS011;2256;48.740;9.106;2022-11-15T05:10:09;8.70;;;2.73;;
4486;SDS011;2256;48.740;9.106;2022-11-15T05:12:37;8.50;;;3.03;;
4486;SDS011;2256;48.740;9.106;2022-11-15T05:15:04;11.10;;;3.20;;
4486;SDS011;2256;48.740;9.106;2022-11-15T05:17:32;4.80;;;2.87;;
4486;SDS011;2256;48.740;9.106;2022-11-15T05:19:58;4.47;;;2.67;;
4486;SDS011;2256;48.740;9.106;2022-11-15T05:22:27;4.80;;;3.17;;
4486;SDS011;2256;48.740;9.106;2022-11-15T05:24:54;7.20;;;3.67;;
4486;SDS011;2256;48.740;9.106;2022-11-15T05:27:21;15.70;;;3.70;;
4486;SDS011;2256;48.740;9.106;2022-11-15T05:29:47;12.90;;;3.20;;
4486;SDS011;2256;48.740;9.106;2022-11-15T05:32:14;6.77;;;3.20;;
4486;SDS011;2256;48.740;9.106;2022-11-15T05:34:43;3.50;;;2.87;;
4486;SDS011;2256;48.740;9.106;2022-11-15T05:37:11;5.37;;;3.27;;
4486;SDS011;2256;48.740;9.106;2022-11-15T05:39:40;4.57;;;3.03;;
4486;SDS011;2256;48.740;9.106;2022-11-15T05:42:07;4.80;;;3.10;;
4486;SDS011;2256;48.740;9.106;2022-11-15T05:44:36;6.27;;;3.20;;
4486;SDS011;2256;48.740;9.106;2022-11-15T05:47:05;3.93;;;2.83;;
4486;SDS011;2256;48.740;9.106;2022-11-15T05:49:35;6.30;;;3.00;;
4486;SDS011;2256;48.740;9.106;2022-11-15T05:52:04;12.20;;;3.25;;
4486;SDS011;2256;48.740;9.106;2022-11-15T05:54:33;9.30;;;3.90;;
4486;SDS011;2256;48.740;9.106;2022-11-15T05:57:03;4.83;;;3.40;;
4486;SDS011;2256;48.740;9.106;2022-11-15T05:59:30;7.97;;;3.03;;
4486;SDS011;2256;48.740;9.106;2022-11-15T06:01:59;5.77;;;3.53;;
4486;SDS011;2256;48.740;9.106;2022-11-15T06:04:26;5.17;;;3.50;;
4486;SDS011;2256;48.740;9.106;2022-11-15T06:06:53;4.70;;;2.70;;
4486;SDS011;2256;48.740;9.106;2022-11-15T06:09:20;5.67;;;3.23;;
4486;SDS011;2256;48.740;9.106;2022-11-15T06:11:47;8.13;;;3.27;;
4486;SDS011;2256;48.740;9.106;2022-11-15T06:14:15;5.93;;;3.00;;
4486;SDS011;2256;48.740;9.106;2022-11-15T06:16:43;4.03;;;3.27;;
4486;SDS011;2256;48.740;9.106;2022-11-15T06:19:10;4.53;;;3.10;;
4486;SDS011;2256;48.740;9.106;2022-11-15T06:21:36;7.07;;;3.90;;
4486;SDS011;2256;48.740;9.106;2022-11-15T06:24:04;6.23;;;3.43;;
4486;SDS011;2256;48.740;9.106;2022-11-15T06:26:32;9.37;;;3.50;;
4486;SDS011;2256;48.740;9.106;2022-11-15T06:28:58;4.90;;;3.40;;
4486;SDS011;2256;48.740;9.106;2022-11-15T06:31:26;7.50;;;4.13;;
4486;SDS011;2256;48.740;9.106;2022-11-15T06:33:53;4.60;;;3.33;;
4486;SDS011;2256;48.740;9.106;2022-11-15T06:36:20;18.17;;;3.30;;
4486;SDS011;2256;48.740;9.106;2022-11-15T06:38:47;8.00;;;4.07;;
4486;SDS011;2256;48.740;9.106;2022-11-15T06:41:17;13.80;;;3.57;;
4486;SDS011;2256;48.740;9.106;2022-11-15T06:43:46;6.50;;;3.33;;
4486;SDS011;2256;48.740;9.106;2022-11-15T06:46:12;5.03;;;3.33;;
4486;SDS011;2256;48.740;9.106;2022-11-15T06:48:40;6.87;;;3.30;;
4486;SDS011;2256;48.740;9.106;2022-11-15T06:51:07;11.90;;;3.33;;
4486;SDS011;2256;48.740;9.106;2022-11-15T06:53:34;8.60;;;3.30;;
4486;SDS011;2256;48.740;9.106;2022-11-15T06:56:01;10.13;;;4.23;;
4486;SDS011;2256;48.740;9.106;2022-11-15T06:58:28;10.10;;;4.33;;
4486;SDS011;2256;48.740;9.106;2022-11-15T07:00:58;10.43;;;3.43;;
4486;SDS011;2256;48.740;9.106;2022-11-15T07:03:26;17.50;;;3.83;;
4486;SDS011;2256;48.740;9.106;2022-11-15T07:05:54;9.50;;;4.33;;
4486;SDS011;2256;48.740;9.106;2022-11-15T07:08:22;12.37;;;4.23;;
4486;SDS011;2256;48.740;9.106;2022-11-15T07:10:49;11.83;;;3.70;;
4486;SDS011;2256;48.740;9.106;2022-11-15T07:13:16;11.10;;;4.50;;
4486;SDS011;2256;48.740;9.106;2022-11-15T07:15:43;9.80;;;4.70;;
4486;SDS011;2256;48.740;9.106;2022-11-15T07:18:10;12.13;;;4.63;;
4486;SDS011;2256;48.740;9.106;2022-11-15T07:20:37;10.40;;;3.97;;
4486;SDS011;2256;48.740;9.106;2022-11-15T07:23:06;11.90;;;4.17;;
4486;SDS011;2256;48.740;9.106;2022-11-15T07:25:32;14.30;;;4.40;;
4486;SDS011;2256;48.740;9.106;2022-11-15T07:27:59;14.27;;;4.03;;
4486;SDS011;2256;48.740;9.106;2022-11-15T07:30:27;8.30;;;3.67;;
4486;SDS011;2256;48.740;9.106;2022-11-15T07:32:54;7.10;;;4.43;;
4486;SDS011;2256;48.740;9.106;2022-11-15T07:35:21;5.93;;;4.60;;
4486;SDS011;2256;48.740;9.106;2022-11-15T07:37:54;10.50;;;4.57;;
4486;SDS011;2256;48.740;9.106;2022-11-15T07:40:23;10.33;;;3.50;;
4486;SDS011;2256;48.740;9.106;2022-11-15T07:42:50;7.20;;;3.73;;
4486;SDS011;2256;48.740;9.106;2022-11-15T07:45:21;5.83;;;3.40;;
4486;SDS011;2256;48.740;9.106;2022-11-15T07:47:50;34.70;;;3.63;;
4486;SDS011;2256;48.740;9.106;2022-11-15T07:50:18;6.20;;;3.40;;
4486;SDS011;2256;48.740;9.106;2022-11-15T07:52:45;7.33;;;3.10;;
4486;SDS011;2256;48.740;9.106;2022-11-15T07:55:12;4.80;;;3.13;;
4486;SDS011;2256;48.740;9.106;2022-11-15T07:57:40;14.33;;;3.90;;
4486;SDS011;2256;48.740;9.106;2022-11-15T08:00:07;13.03;;;3.00;;
4486;SDS011;2256;48.740;9.106;2022-11-15T08:02:35;6.60;;;3.70;;
4486;SDS011;2256;48.740;9.106;2022-11-15T08:05:01;10.70;;;2.90;;
4486;SDS011;2256;48.740;9.106;2022-11-15T08:07:29;8.87;;;3.20;;
4486;SDS011;2256;48.740;9.106;2022-11-15T08:09:56;6.00;;;3.00;;
4486;SDS011;2256;48.740;9.106;2022-11-15T08:12:23;7.23;;;3.37;;
4486;SDS011;2256;48.740;9.106;2022-11-15T08:14:51;7.60;;;3.80;;
4486;SDS011;2256;48.740;9.106;2022-11-15T08:17:18;6.70;;;3.07;;
4486;SDS011;2256;48.740;9.106;2022-11-15T08:19:45;4.50;;;2.90;;
4486;SDS011;2256;48.740;9.106;2022-11-15T08:22:12;9.47;;;3.70;;
4486;SDS011;2256;48.740;9.106;2022-11-15T08:24:38;9.90;;;3.20;;
4486;SDS011;2256;48.740;9.106;2022-11-15T08:27:05;9.43;;;3.60;;
4486;SDS011;2256;48.740;9.106;2022-11-15T08:29:39;12.13;;;2.50;;
4486;SDS011;2256;48.740;9.106;2022-11-15T08:32:08;7.00;;;3.10;;
4486;SDS011;2256;48.740;9.106;2022-11-15T08:34:35;4.30;;;2.73;;
4486;SDS011;2256;48.740;9.106;2022-11-15T08:37:02;15.23;;;2.87;;
4486;SDS011;2256;48.740;9.106;2022-11-15T08:39:29;15.83;;;3.13;;
4486;SDS011;2256;48.740;9.106;2022-11-15T08:41:55;2.97;;;2.60;;
4486;SDS011;2256;48.740;9.106;2022-11-15T08:44:22;3.20;;;2.60;;
4486;SDS011;2256;48.740;9.106;2022-11-15T08:46:50;4.00;;;2.37;;
4486;SDS011;2256;48.740;9.106;2022-11-15T08:49:18;5.90;;;3.10;;
4486;SDS011;2256;48.740;9.106;2022-11-15T08:51:45;3.20;;;2.37;;
4486;SDS011;2256;48.740;9.106;2022-11-15T08:54:12;5.23;;;2.70;;
4486;SDS011;2256;48.740;9.106;2022-11-15T08:56:39;4.27;;;3.57;;
4486;SDS011;2256;48.740;9.106;2022-11-15T08:59:06;4.93;;;2.50;;
4486;SDS011;2256;48.740;9.106;2022-11-15T09:01:32;8.03;;;2.93;;
4486;SDS011;2256;48.740;9.106;2022-11-15T09:03:59;8.67;;;3.10;;
4486;SDS011;2256;48.740;9.106;2022-11-15T09:06:27;5.07;;;2.73;;
4486;SDS011;2256;48.740;9.106;2022-11-15T09:08:54;4.30;;;3.50;;
4486;SDS011;2256;48.740;9.106;2022-11-15T09:11:21;5.13;;;2.70;;
4486;SDS011;2256;48.740;9.106;2022-11-15T09:13:48;2.60;;;2.03;;
4486;SDS011;2256;48.740;9.106;2022-11-15T09:16:15;4.53;;;2.23;;
4486;SDS011;2256;48.740;9.106;2022-11-15T09:18:42;3.73;;;2.20;;
4486;SDS011;2256;48.740;9.106;2022-11-15T09:21:09;7.83;;;3.23;;
4486;SDS011;2256;48.740;9.106;2022-11-15T09:23:37;7.07;;;3.47;;
4486;SDS011;2256;48.740;9.106;2022-11-15T09:26:04;3.73;;;2.30;;
4486;SDS011;2256;48.740;9.106;2022-11-15T09:28:32;2.40;;;2.00;;
4486;SDS011;2256;48.740;9.106;2022-11-15T09:30:59;3.53;;;1.93;;
4486;SDS011;2256;48.740;9.106;2022-11-15T09:33:29;6.10;;;2.10;;
4486;SDS011;2256;48.740;9.106;2022-11-15T09:36:00;2.70;;;1.90;;
4486;SDS011;2256;48.740;9.106;2022-11-15T09:38:27;5.27;;;2.20;;
4486;SDS011;2256;48.740;9.106;2022-11-15T09:40:58;5.63;;;2.30;;
4486;SDS011;2256;48.740;9.106;2022-11-15T09:43:40;4.07;;;2.13;;
4486;SDS011;2256;48.740;9.106;2022-11-15T09:46:15;7.40;;;2.43;;
4486;SDS011;2256;48.740;9.106;2022-11-15T09:48:49;4.00;;;2.00;;
4486;SDS011;2256;48.740;9.106;2022-11-15T09:51:21;4.73;;;2.13;;
4486;SDS011;2256;48.740;9.106;2022-11-15T09:53:54;6.90;;;2.03;;
4486;SDS011;2256;48.740;9.106;2022-11-15T09:56:26;4.20;;;2.10;;
4486;SDS011;2256;48.740;9.106;2022-11-15T09:58:57;3.90;;;2.23;;
4486;SDS011;2256;48.740;9.106;2022-11-15T10:01:36;19.33;;;2.80;;
4486;SDS011;2256;48.740;9.106;2022-11-15T10:04:10;2.37;;;1.83;;
4486;SDS011;2256;48.740;9.106;2022-11-15T10:06:38;3.73;;;1.77;;
4486;SDS011;2256;48.740;9.106;2022-11-15T10:09:12;3.13;;;2.07;;
4486;SDS011;2256;48.740;9.106;2022-11-15T10:11:44;3.87;;;2.13;;
4486;SDS011;2256;48.740;9.106;2022-11-15T10:14:12;4.33;;;2.00;;
4486;SDS011;2256;48.740;9.106;2022-11-15T10:16:47;6.30;;;1.90;;
4486;SDS011;2256;48.740;9.106;2022-11-15T10:19:32;3.57;;;2.20;;
4486;SDS011;2256;48.740;9.106;2022-11-15T10:22:11;5.27;;;2.03;;
4486;SDS011;2256;48.740;9.106;2022-11-15T10:24:52;4.27;;;1.80;;
4486;SDS011;2256;48.740;9.106;2022-11-15T10:27:34;3.93;;;2.40;;
4486;SDS011;2256;48.740;9.106;2022-11-15T10:30:02;4.10;;;2.03;;
4486;SDS011;2256;48.740;9.106;2022-11-15T10:32:36;5.60;;;2.13;;
4486;SDS011;2256;48.740;9.106;2022-11-15T10:35:15;3.47;;;1.80;;
4486;SDS011;2256;48.740;9.106;2022-11-15T10:37:44;3.43;;;1.77;;
4486;SDS011;2256;48.740;9.106;2022-11-15T10:40:15;5.03;;;1.97;;
4486;SDS011;2256;48.740;9.106;2022-11-15T10:42:45;2.90;;;2.10;;
4486;SDS011;2256;48.740;9.106;2022-11-15T10:45:26;9.93;;;2.40;;
4486;SDS011;2256;48.740;9.106;2022-11-15T10:47:59;6.93;;;2.43;;
4486;SDS011;2256;48.740;9.106;2022-11-15T10:50:49;3.37;;;1.80;;
4486;SDS011;2256;48.740;9.106;2022-11-15T10:53:21;3.63;;;1.93;;
4486;SDS011;2256;48.740;9.106;2022-11-15T10:55:51;4.40;;;1.83;;
4486;SDS011;2256;48.740;9.106;2022-11-15T10:58:26;8.73;;;1.80;;
4486;SDS011;2256;48.740;9.106;2022-11-15T11:01:08;17.80;;;2.40;;
4486;SDS011;2256;48.740;9.106;2022-11-15T11:03:39;27.60;;;2.90;;
4486;SDS011;2256;48.740;9.106;2022-11-15T11:06:08;18.53;;;2.30;;
4486;SDS011;2256;48.740;9.106;2022-11-15T11:08:37;12.80;;;1.73;;
4486;SDS011;2256;48.740;9.106;2022-11-15T11:11:05;8.60;;;2.00;;
4486;SDS011;2256;48.740;9.106;2022-11-15T11:13:34;5.60;;;2.50;;
4486;SDS011;2256;48.740;9.106;2022-11-15T11:19:15;9.97;;;2.00;;
4486;SDS011;2256;48.740;9.106;2022-11-15T11:22:00;3.30;;;1.80;;
4486;SDS011;2256;48.740;9.106;2022-11-15T11:24:36;8.43;;;1.90;;
4486;SDS011;2256;48.740;9.106;2022-11-15T11:27:16;7.70;;;3.23;;
4486;SDS011;2256;48.740;9.106;2022-11-15T11:30:01;10.40;;;2.03;;
4486;SDS011;2256;48.740;9.106;2022-11-15T11:35:29;4.93;;;2.47;;
4486;SDS011;2256;48.740;9.106;2022-11-15T11:38:05;3.33;;;1.90;;
4486;SDS011;2256;48.740;9.106;2022-11-15T11:40:59;9.40;;;1.70;;
4486;SDS011;2256;48.740;9.106;2022-11-15T11:43:39;6.50;;;2.50;;
4486;SDS011;2256;48.740;9.106;2022-11-15T11:49:08;8.60;;;1.60;;
4486;SDS011;2256;48.740;9.106;2022-11-15T11:51:38;6.53;;;2.10;;
4486;SDS011;2256;48.740;9.106;2022-11-15T11:54:11;4.73;;;1.70;;
4486;SDS011;2256;48.740;9.106;2022-11-15T11:56:41;1.57;;;1.47;;
4486;SDS011;2256;48.740;9.106;2022-11-15T11:59:12;18.60;;;2.40;;
4486;SDS011;2256;48.740;9.106;2022-11-15T12:01:45;16.53;;;2.00;;
4486;SDS011;2256;48.740;9.106;2022-11-15T12:04:13;7.70;;;1.70;;
4486;SDS011;2256;48.740;9.106;2022-11-15T12:06:45;3.87;;;1.73;;
4486;SDS011;2256;48.740;9.106;2022-11-15T12:09:17;7.60;;;1.50;;
4486;SDS011;2256;48.740;9.106;2022-11-15T12:11:50;7.20;;;1.50;;
4486;SDS011;2256;48.740;9.106;2022-11-15T12:14:24;1.43;;;1.30;;
4486;SDS011;2256;48.740;9.106;2022-11-15T12:16:57;3.60;;;1.80;;
4486;SDS011;2256;48.740;9.106;2022-11-15T12:19:24;2.40;;;1.00;;
4486;SDS011;2256;48.740;9.106;2022-11-15T12:21:53;2.40;;;1.10;;
4486;SDS011;2256;48.740;9.106;2022-11-15T12:24:26;1.47;;;1.37;;
4486;SDS011;2256;48.740;9.106;2022-11-15T12:26:59;2.17;;;1.73;;
4486;SDS011;2256;48.740;9.106;2022-11-15T12:29:31;1.67;;;1.50;;
4486;SDS011;2256;48.740;9.106;2022-11-15T12:32:04;2.47;;;1.40;;
4486;SDS011;2256;48.740;9.106;2022-11-15T12:34:42;3.63;;;1.17;;
4486;SDS011;2256;48.740;9.106;2022-11-15T12:40:14;4.33;;;1.40;;
4486;SDS011;2256;48.740;9.106;2022-11-15T12:42:57;2.40;;;1.57;;
4486;SDS011;2256;48.740;9.106;2022-11-15T12:45:29;2.93;;;1.50;;
4486;SDS011;2256;48.740;9.106;2022-11-15T12:50:59;5.00;;;2.27;;
4486;SDS011;2256;48.740;9.106;2022-11-15T12:53:27;8.63;;;2.13;;
4486;SDS011;2256;48.740;9.106;2022-11-15T12:58:50;3.70;;;1.90;;
4486;SDS011;2256;48.740;9.106;2022-11-15T13:04:23;5.17;;;2.10;;
4486;SDS011;2256;48.740;9.106;2022-11-15T13:06:56;2.30;;;1.90;;
4486;SDS011;2256;48.740;9.106;2022-11-15T13:15:33;6.77;;;2.07;;
4486;SDS011;2256;48.740;9.106;2022-11-15T13:21:05;4.07;;;1.90;;
4486;SDS011;2256;48.740;9.106;2022-11-15T13:24:08;3.67;;;2.20;;
4486;SDS011;2256;48.740;9.106;2022-11-15T13:26:38;10.03;;;1.90;;
4486;SDS011;2256;48.740;9.106;2022-11-15T13:29:12;3.43;;;1.93;;
4486;SDS011;2256;48.740;9.106;2022-11-15T13:31:42;5.70;;;2.20;;
4486;SDS011;2256;48.740;9.106;2022-11-15T13:34:17;2.87;;;2.30;;
4486;SDS011;2256;48.740;9.106;2022-11-15T13:36:50;4.77;;;2.10;;
4486;SDS011;2256;48.740;9.106;2022-11-15T13:39:25;3.17;;;2.00;;
4486;SDS011;2256;48.740;9.106;2022-11-15T13:41:54;12.73;;;2.40;;
4486;SDS011;2256;48.740;9.106;2022-11-15T13:44:21;4.03;;;2.10;;
4486;SDS011;2256;48.740;9.106;2022-11-15T13:46:49;3.10;;;2.27;;
4486;SDS011;2256;48.740;9.106;2022-11-15T13:49:28;3.50;;;1.90;;
4486;SDS011;2256;48.740;9.106;2022-11-15T13:51:56;10.03;;;2.67;;
4486;SDS011;2256;48.740;9.106;2022-11-15T13:54:25;6.50;;;2.13;;
4486;SDS011;2256;48.740;9.106;2022-11-15T13:56:56;7.83;;;2.40;;
4486;SDS011;2256;48.740;9.106;2022-11-15T13:59:26;2.40;;;1.87;;
4486;SDS011;2256;48.740;9.106;2022-11-15T14:01:54;2.80;;;2.27;;
4486;SDS011;2256;48.740;9.106;2022-11-15T14:04:24;4.37;;;2.00;;
4486;SDS011;2256;48.740;9.106;2022-11-15T14:06:55;7.07;;;2.47;;
4486;SDS011;2256;48.740;9.106;2022-11-15T14:09:29;4.00;;;2.47;;
4486;SDS011;2256;48.740;9.106;2022-11-15T14:11:59;16.43;;;3.70;;
4486;SDS011;2256;48.740;9.106;2022-11-15T14:14:27;13.97;;;4.03;;
4486;SDS011;2256;48.740;9.106;2022-11-15T14:16:56;10.43;;;4.23;;
4486;SDS011;2256;48.740;9.106;2022-11-15T14:19:33;7.73;;;4.50;;
4486;SDS011;2256;48.740;9.106;2022-11-15T14:22:19;9.90;;;5.23;;
4486;SDS011;2256;48.740;9.106;2022-11-15T14:25:03;22.90;;;6.73;;
4486;SDS011;2256;48.740;9.106;2022-11-15T14:27:40;13.30;;;6.00;;
4486;SDS011;2256;48.740;9.106;2022-11-15T14:30:12;16.43;;;6.50;;
4486;SDS011;2256;48.740;9.106;2022-11-15T14:32:44;10.23;;;5.43;;
4486;SDS011;2256;48.740;9.106;2022-11-15T14:35:14;12.43;;;5.70;;
4486;SDS011;2256;48.740;9.106;2022-11-15T14:37:42;11.60;;;5.90;;
4486;SDS011;2256;48.740;9.106;2022-11-15T14:40:13;15.10;;;6.20;;
4486;SDS011;2256;48.740;9.106;2022-11-15T14:42:45;13.23;;;6.33;;
4486;SDS011;2256;48.740;9.106;2022-11-15T14:45:14;14.70;;;5.47;;
4486;SDS011;2256;48.740;9.106;2022-11-15T14:47:44;12.63;;;5.60;;
4486;SDS011;2256;48.740;9.106;2022-11-15T14:50:11;11.10;;;5.63;;
4486;SDS011;2256;48.740;9.106;2022-11-15T14:52:39;18.53;;;6.80;;
4486;SDS011;2256;48.740;9.106;2022-11-15T14:55:11;19.93;;;5.30;;
4486;SDS011;2256;48.740;9.106;2022-11-15T14:57:46;13.60;;;5.30;;
4486;SDS011;2256;48.740;9.106;2022-11-15T15:00:13;15.07;;;5.93;;
4486;SDS011;2256;48.740;9.106;2022-11-15T15:02:40;9.30;;;5.33;;
4486;SDS011;2256;48.740;9.106;2022-11-15T15:05:15;16.60;;;6.43;;
4486;SDS011;2256;48.740;9.106;2022-11-15T15:07:43;16.80;;;5.67;;
4486;SDS011;2256;48.740;9.106;2022-11-15T15:10:11;8.73;;;5.50;;
4486;SDS011;2256;48.740;9.106;2022-11-15T15:12:40;18.07;;;7.17;;
4486;SDS011;2256;48.740;9.106;2022-11-15T15:15:10;14.00;;;5.13;;
4486;SDS011;2256;48.740;9.106;2022-11-15T15:17:39;18.00;;;5.30;;
4486;SDS011;2256;48.740;9.106;2022-11-15T15:20:07;12.70;;;6.57;;
4486;SDS011;2256;48.740;9.106;2022-11-15T15:22:34;21.17;;;6.47;;
4486;SDS011;2256;48.740;9.106;2022-11-15T15:25:01;21.83;;;6.30;;
4486;SDS011;2256;48.740;9.106;2022-11-15T15:27:29;14.23;;;6.57;;
4486;SDS011;2256;48.740;9.106;2022-11-15T15:29:57;17.97;;;5.83;;
4486;SDS011;2256;48.740;9.106;2022-11-15T15:32:23;17.60;;;6.27;;
4486;SDS011;2256;48.740;9.106;2022-11-15T15:34:50;21.67;;;6.30;;
4486;SDS011;2256;48.740;9.106;2022-11-15T15:37:20;13.20;;;6.07;;
4486;SDS011;2256;48.740;9.106;2022-11-15T15:39:49;24.53;;;6.17;;
4486;SDS011;2256;48.740;9.106;2022-11-15T15:42:17;12.50;;;6.33;;
4486;SDS011;2256;48.740;9.106;2022-11-15T15:44:44;16.53;;;6.10;;
4486;SDS011;2256;48.740;9.106;2022-11-15T15:47:12;18.50;;;7.00;;
4486;SDS011;2256;48.740;9.106;2022-11-15T15:49:42;10.30;;;5.80;;
4486;SDS011;2256;48.740;9.106;2022-11-15T15:52:08;15.93;;;6.03;;
4486;SDS011;2256;48.740;9.106;2022-11-15T15:54:36;11.30;;;5.73;;
4486;SDS011;2256;48.740;9.106;2022-11-15T15:57:03;13.77;;;6.40;;
4486;SDS011;2256;48.740;9.106;2022-11-15T15:59:31;18.90;;;7.07;;
4486;SDS011;2256;48.740;9.106;2022-11-15T16:01:58;12.83;;;6.67;;